Time;durP1;ratioP1;P1;durP2;ratioP2;P2;SDS_P1;SDS_P2;PMS_P1;PMS_P2;Temp;Humidity;BMP_temperature;BMP_pressure;BME280_temperature;BME280_humidity;BME280_pressure;Samples;Min_cycle;Max_cycle;Signal;HPM_P1;HPM_P2
2022/09/19 04:02:12;;;;;;;1.50;1.40;;;8.20;99.90;;;;;;5257792;22;21444;-71
2022/09/19 04:04:39;;;;;;;2.10;1.80;;;8.30;99.90;;;;;;5004819;28;20457;-73
2022/09/19 04:07:07;;;;;;;1.60;1.50;;;8.30;99.90;;;;;;5005353;28;20469;-72
2022/09/19 04:09:34;;;;;;;1.60;1.50;;;8.30;99.90;;;;;;5005315;28;21021;-72
2022/09/19 04:12:03;;;;;;;3.30;2.53;;;8.40;99.90;;;;;;5005015;28;20903;-73
2022/09/19 04:14:30;;;;;;;2.40;1.80;;;8.40;99.90;;;;;;5005112;28;20565;-72
2022/09/19 04:16:57;;;;;;;4.27;1.80;;;8.40;99.90;;;;;;5005101;28;20967;-72
2022/09/19 04:19:26;;;;;;;3.17;1.97;;;8.40;99.90;;;;;;5003555;28;20881;-72
2022/09/19 04:21:54;;;;;;;2.80;1.80;;;8.40;99.90;;;;;;5005695;28;20538;-72
2022/09/19 04:24:20;;;;;;;4.37;2.10;;;8.40;99.90;;;;;;5005042;28;20520;-72
2022/09/19 04:26:49;;;;;;;6.80;1.73;;;8.50;99.90;;;;;;5005221;28;20459;-72
2022/09/19 04:29:18;;;;;;;4.90;1.83;;;8.50;99.90;;;;;;5004184;28;20467;-72
2022/09/19 04:31:45;;;;;;;4.17;2.50;;;8.50;99.90;;;;;;5005457;28;20564;-72
2022/09/19 04:34:14;;;;;;;5.13;1.97;;;8.50;99.90;;;;;;5005025;28;20458;-72
2022/09/19 04:36:43;;;;;;;2.30;1.73;;;8.50;99.90;;;;;;5005506;28;21022;-72
2022/09/19 04:39:10;;;;;;;1.63;1.53;;;8.50;99.90;;;;;;5005468;28;20513;-72
2022/09/19 04:41:38;;;;;;;4.63;1.90;;;8.50;99.90;;;;;;5005331;28;20498;-72
2022/09/19 04:44:10;;;;;;;2.00;1.57;;;8.50;99.90;;;;;;5004835;28;20459;-72
2022/09/19 04:46:41;;;;;;;3.03;1.90;;;8.50;99.90;;;;;;5005302;28;20462;-72
2022/09/19 04:49:08;;;;;;;3.07;1.47;;;8.50;99.90;;;;;;5005284;28;20463;-72
2022/09/19 04:51:35;;;;;;;2.23;1.73;;;8.60;99.90;;;;;;5005109;28;20474;-72
2022/09/19 04:54:05;;;;;;;4.63;2.07;;;8.60;99.90;;;;;;5004336;28;21268;-72
2022/09/19 04:56:31;;;;;;;3.60;2.07;;;8.60;99.90;;;;;;5005263;28;20557;-72
2022/09/19 04:58:59;;;;;;;4.57;1.80;;;8.60;99.90;;;;;;5005438;28;20481;-72
2022/09/19 05:01:26;;;;;;;3.33;1.53;;;8.60;99.90;;;;;;5005121;28;20541;-77
2022/09/19 05:03:53;;;;;;;8.13;1.60;;;8.60;99.90;;;;;;5005020;28;21058;-77
2022/09/19 05:06:20;;;;;;;9.50;2.00;;;8.60;99.90;;;;;;5003539;28;20459;-72
2022/09/19 05:08:46;;;;;;;5.03;2.10;;;8.60;99.90;;;;;;5004470;28;21141;-71
2022/09/19 05:11:15;;;;;;;3.90;2.03;;;8.60;99.90;;;;;;5006856;28;20481;-71
2022/09/19 05:13:41;;;;;;;3.28;1.80;;;8.60;99.90;;;;;;5008283;28;20493;-71
2022/09/19 05:16:09;;;;;;;3.30;1.80;;;8.60;99.90;;;;;;5007625;28;20220;-71
2022/09/19 05:18:37;;;;;;;3.23;1.70;;;8.70;99.90;;;;;;5008515;28;20466;-76
2022/09/19 05:21:06;;;;;;;2.77;2.10;;;8.60;99.90;;;;;;5008596;28;20498;-76
2022/09/19 05:23:35;;;;;;;2.93;1.60;;;8.60;99.90;;;;;;5008286;28;20460;-76
2022/09/19 05:26:07;;;;;;;7.30;1.70;;;8.70;99.90;;;;;;5007620;28;20451;-76
2022/09/19 05:28:35;;;;;;;5.80;1.40;;;8.80;99.90;;;;;;5008409;28;20462;-76
2022/09/19 05:31:05;;;;;;;7.03;1.70;;;8.80;99.90;;;;;;5008160;28;20493;-77
2022/09/19 05:33:33;;;;;;;5.03;2.00;;;8.80;99.90;;;;;;5008653;28;20463;-76
2022/09/19 05:36:02;;;;;;;3.17;1.87;;;8.80;99.90;;;;;;5007369;28;20463;-76
2022/09/19 05:38:29;;;;;;;6.50;2.53;;;8.80;99.90;;;;;;5007995;28;20464;-76
2022/09/19 05:40:57;;;;;;;9.47;2.00;;;8.80;99.90;;;;;;5008026;28;20498;-76
2022/09/19 05:43:25;;;;;;;5.17;1.70;;;8.80;99.90;;;;;;5008546;28;20462;-77
2022/09/19 05:45:55;;;;;;;11.53;2.10;;;8.80;99.90;;;;;;5007292;28;20492;-76
2022/09/19 05:48:22;;;;;;;5.10;2.07;;;8.90;99.90;;;;;;5008120;28;20586;-77
2022/09/19 05:50:50;;;;;;;5.63;2.20;;;8.80;99.90;;;;;;5008085;28;20474;-77
2022/09/19 05:56:03;;;;;;;7.73;2.40;;;8.90;99.90;;;;;;5007252;28;20433;-77
2022/09/19 05:58:31;;;;;;;4.40;2.17;;;8.90;99.90;;;;;;5007348;28;20467;-77
2022/09/19 06:01:02;;;;;;;3.43;2.13;;;8.90;99.90;;;;;;5008167;28;20502;-77
2022/09/19 06:03:29;;;;;;;3.90;1.80;;;8.90;99.90;;;;;;5007972;28;20462;-76
2022/09/19 06:05:56;;;;;;;2.83;1.93;;;8.90;99.90;;;;;;5007661;28;20454;-76
2022/09/19 06:08:23;;;;;;;4.57;1.83;;;8.90;99.90;;;;;;5008256;28;20474;-75
2022/09/19 06:10:52;;;;;;;5.77;2.00;;;8.90;99.90;;;;;;5007390;28;20480;-76
2022/09/19 06:13:21;;;;;;;8.88;2.40;;;9.00;99.90;;;;;;5007704;28;20453;-77
2022/09/19 06:15:48;;;;;;;4.80;2.27;;;9.20;99.90;;;;;;5009100;28;20219;-77
2022/09/19 06:18:17;;;;;;;5.23;2.20;;;9.20;99.90;;;;;;5007545;28;20457;-76
2022/09/19 06:20:45;;;;;;;5.93;2.77;;;9.20;99.90;;;;;;5007109;28;20494;-76
2022/09/19 06:23:12;;;;;;;3.27;1.83;;;9.20;99.90;;;;;;5006798;28;20950;-76
2022/09/19 06:25:40;;;;;;;8.20;2.30;;;9.20;99.90;;;;;;5007092;28;20469;-77
2022/09/19 06:28:10;;;;;;;4.43;2.00;;;9.10;99.90;;;;;;5007427;28;20545;-76
2022/09/19 06:30:38;;;;;;;4.70;2.13;;;9.10;99.90;;;;;;5007347;28;20565;-77
2022/09/19 06:33:06;;;;;;;8.03;2.47;;;9.10;99.90;;;;;;5008095;28;20470;-77
2022/09/19 06:35:34;;;;;;;8.07;2.47;;;9.10;99.90;;;;;;5009002;28;20470;-77
2022/09/19 06:38:04;;;;;;;3.83;1.97;;;9.10;99.90;;;;;;5008933;28;20473;-78
2022/09/19 06:40:36;;;;;;;6.13;2.57;;;9.10;99.90;;;;;;5008157;28;20486;-77
2022/09/19 06:43:05;;;;;;;7.93;2.23;;;9.10;99.90;;;;;;5008293;28;20477;-77
2022/09/19 06:45:37;;;;;;;7.93;2.10;;;9.20;99.90;;;;;;5007129;28;20478;-77
2022/09/19 06:48:04;;;;;;;6.63;2.33;;;9.20;99.90;;;;;;5008514;28;20942;-77
2022/09/19 06:50:32;;;;;;;4.40;2.03;;;9.20;99.90;;;;;;5008084;28;20478;-77
2022/09/19 06:53:00;;;;;;;13.50;3.07;;;9.20;99.90;;;;;;5008092;28;20459;-77
2022/09/19 06:55:29;;;;;;;4.43;2.30;;;9.20;99.90;;;;;;5006520;28;20477;-77
2022/09/19 06:57:58;;;;;;;8.67;2.60;;;9.30;99.90;;;;;;5007886;28;20970;-77
2022/09/19 07:00:26;;;;;;;6.40;2.43;;;9.30;99.90;;;;;;5007392;28;20467;-77
2022/09/19 07:02:54;;;;;;;6.53;2.13;;;9.30;99.90;;;;;;5007439;28;20471;-77
2022/09/19 07:05:21;;;;;;;7.13;2.37;;;9.30;99.90;;;;;;5006778;28;20477;-77
2022/09/19 07:07:51;;;;;;;9.87;2.83;;;9.30;99.90;;;;;;5007370;28;20475;-77
2022/09/19 07:10:20;;;;;;;7.53;2.50;;;9.40;99.90;;;;;;5007338;28;20509;-77
2022/09/19 07:12:52;;;;;;;11.20;2.60;;;9.40;99.90;;;;;;5007212;28;20458;-79
2022/09/19 07:15:19;;;;;;;5.93;2.20;;;9.40;99.90;;;;;;5006404;28;20497;-77
2022/09/19 07:17:46;;;;;;;4.63;2.17;;;9.40;99.90;;;;;;5007117;28;20454;-77
2022/09/19 07:20:13;;;;;;;7.47;1.87;;;9.40;99.90;;;;;;5007460;28;20447;-77
2022/09/19 07:22:40;;;;;;;8.80;2.37;;;9.50;99.90;;;;;;5007592;28;20501;-78
2022/09/19 07:25:08;;;;;;;7.87;2.47;;;9.50;99.90;;;;;;5006902;28;20463;-78
2022/09/19 07:27:36;;;;;;;8.23;2.10;;;9.50;99.90;;;;;;5008001;28;20459;-78
2022/09/19 07:30:04;;;;;;;6.70;2.10;;;9.50;99.90;;;;;;5006898;28;20459;-78
2022/09/19 07:32:32;;;;;;;9.30;2.50;;;9.50;99.90;;;;;;5006531;28;20852;-77
2022/09/19 07:34:59;;;;;;;11.90;2.70;;;9.50;99.90;;;;;;5009160;28;20462;-78
2022/09/19 07:37:26;;;;;;;10.17;2.77;;;9.60;99.90;;;;;;5010912;28;20492;-78
2022/09/19 07:39:53;;;;;;;2.87;1.90;;;9.60;99.90;;;;;;5009805;28;21126;-78
2022/09/19 07:42:21;;;;;;;5.93;2.50;;;9.60;99.90;;;;;;5007608;28;20537;-77
2022/09/19 07:44:49;;;;;;;11.93;2.40;;;9.70;99.90;;;;;;5005736;28;20466;-77
2022/09/19 07:47:28;;;;;;;7.77;2.30;;;9.70;99.90;;;;;;5006242;28;20463;-76
2022/09/19 07:49:55;;;;;;;6.43;2.23;;;9.70;99.90;;;;;;5006007;28;20466;-76
2022/09/19 07:52:22;;;;;;;7.47;2.70;;;9.80;99.90;;;;;;5005813;28;20506;-76
2022/09/19 07:54:50;;;;;;;16.90;4.30;;;9.80;99.90;;;;;;5005143;28;20549;-76
2022/09/19 07:57:17;;;;;;;4.03;2.07;;;9.80;99.90;;;;;;5005773;28;20462;-76
2022/09/19 07:59:44;;;;;;;7.40;2.43;;;9.80;99.90;;;;;;5005510;28;20943;-76
2022/09/19 08:02:13;;;;;;;6.40;2.10;;;9.80;99.90;;;;;;4996146;28;21058;-76
2022/09/19 08:04:39;;;;;;;11.50;2.43;;;9.80;99.90;;;;;;4995026;28;20463;-76
2022/09/19 08:07:07;;;;;;;7.83;2.30;;;9.90;99.90;;;;;;4994774;28;20458;-76
2022/09/19 08:09:34;;;;;;;5.83;2.30;;;9.90;99.90;;;;;;4995870;28;20489;-77
2022/09/19 08:12:02;;;;;;;9.00;2.20;;;9.90;99.90;;;;;;4995675;28;20809;-76
2022/09/19 08:14:29;;;;;;;12.47;2.70;;;10.00;99.90;;;;;;4993503;28;20452;-78
2022/09/19 08:16:56;;;;;;;13.93;5.00;;;10.00;99.90;;;;;;4996104;28;20455;-76
2022/09/19 08:19:24;;;;;;;3.40;2.00;;;10.00;99.90;;;;;;4996219;28;20460;-76
2022/09/19 08:21:51;;;;;;;10.43;3.00;;;10.00;99.90;;;;;;4996325;28;20494;-76
2022/09/19 08:24:18;;;;;;;18.63;3.23;;;10.10;99.90;;;;;;4994323;28;20464;-76
2022/09/19 08:26:45;;;;;;;12.43;3.00;;;10.10;99.90;;;;;;4994617;28;21231;-76
2022/09/19 08:29:12;;;;;;;6.60;2.47;;;10.20;99.90;;;;;;4994426;28;20994;-76
2022/09/19 08:31:39;;;;;;;7.53;2.70;;;10.20;99.90;;;;;;4994983;28;20481;-76
2022/09/19 08:34:08;;;;;;;7.17;3.00;;;10.20;99.90;;;;;;4995445;28;21045;-76
2022/09/19 08:36:38;;;;;;;6.67;2.67;;;10.20;99.90;;;;;;4993456;28;20986;-76
2022/09/19 08:39:05;;;;;;;10.33;3.17;;;10.20;99.90;;;;;;4985757;28;20793;-76
2022/09/19 08:42:07;;;;;;;7.50;2.30;;;10.20;99.90;;;;;;4985903;28;20506;-76
2022/09/19 08:44:55;;;;;;;5.50;2.77;;;10.20;99.90;;;;;;4985819;28;20451;-76
2022/09/19 08:47:24;;;;;;;7.90;3.27;;;10.20;99.90;;;;;;4989723;28;20470;-76
2022/09/19 08:49:55;;;;;;;9.40;2.70;;;10.30;99.90;;;;;;4989298;28;20460;-76
2022/09/19 08:52:32;;;;;;;11.17;3.37;;;10.30;99.90;;;;;;4989478;28;20475;-76
2022/09/19 08:55:02;;;;;;;9.73;2.90;;;10.40;99.90;;;;;;4988926;28;20447;-76
2022/09/19 08:57:32;;;;;;;7.70;3.13;;;10.40;99.90;;;;;;4988650;28;20459;-76
2022/09/19 09:00:04;;;;;;;10.27;2.60;;;10.40;99.90;;;;;;4989099;28;20452;-76
2022/09/19 09:02:42;;;;;;;4.70;3.57;;;10.50;99.90;;;;;;4988572;28;20953;-76
2022/09/19 09:05:13;;;;;;;10.87;3.20;;;10.50;99.90;;;;;;4988313;28;20443;-76
2022/09/19 09:07:54;;;;;;;12.10;2.43;;;10.50;99.90;;;;;;4988635;28;20916;-76
2022/09/19 09:10:33;;;;;;;10.67;2.93;;;10.60;99.90;;;;;;4988991;28;20482;-76
2022/09/19 09:13:08;;;;;;;10.13;2.60;;;10.60;99.90;;;;;;4989145;28;20466;-76
2022/09/19 09:15:48;;;;;;;8.13;3.13;;;10.70;99.90;;;;;;4988614;28;20462;-76
2022/09/19 09:18:33;;;;;;;12.03;2.53;;;10.70;99.90;;;;;;4988372;28;20463;-77
2022/09/19 09:21:07;;;;;;;10.23;1.90;;;10.70;99.90;;;;;;4988866;28;20494;-76
2022/09/19 09:23:39;;;;;;;6.00;2.20;;;10.70;99.90;;;;;;4988470;28;20479;-76
2022/09/19 09:26:10;;;;;;;11.53;2.53;;;10.70;99.90;;;;;;4988642;28;20447;-77
2022/09/19 09:28:43;;;;;;;11.60;3.10;;;10.70;99.90;;;;;;4988234;28;20467;-77
2022/09/19 09:31:19;;;;;;;6.83;2.50;;;10.80;99.90;;;;;;4988314;28;20481;-76
2022/09/19 09:33:53;;;;;;;9.27;2.77;;;10.90;99.90;;;;;;4988316;28;20465;-76
2022/09/19 09:36:23;;;;;;;9.03;2.60;;;10.90;99.90;;;;;;4987991;28;20455;-76
2022/09/19 09:38:57;;;;;;;7.67;2.80;;;10.90;99.90;;;;;;4988642;28;20467;-76
2022/09/19 09:41:47;;;;;;;12.30;3.03;;;10.90;99.90;;;;;;4988489;28;21042;-76
2022/09/19 09:44:53;;;;;;;8.30;2.80;;;10.90;99.90;;;;;;4987875;28;20463;-76
2022/09/19 09:47:30;;;;;;;16.90;2.70;;;11.00;99.90;;;;;;4928317;29;20451;-76
2022/09/19 09:50:14;;;;;;;11.93;2.80;;;10.90;99.90;;;;;;4928213;29;20478;-76
2022/09/19 09:52:47;;;;;;;11.20;2.67;;;11.00;99.90;;;;;;4968010;28;20460;-76
2022/09/19 09:58:25;;;;;;;10.53;2.43;;;11.10;99.90;;;;;;4988077;28;20959;-76
2022/09/19 10:03:53;;;;;;;8.63;2.37;;;11.20;99.90;;;;;;4957555;28;20566;-76
2022/09/19 10:06:25;;;;;;;9.77;2.73;;;11.20;99.90;;;;;;4987402;28;20463;-76
2022/09/19 10:09:00;;;;;;;6.60;2.87;;;11.20;99.90;;;;;;4987549;28;20444;-76
2022/09/19 10:11:37;;;;;;;3.73;2.20;;;11.30;99.90;;;;;;4987392;28;20487;-76
2022/09/19 10:14:08;;;;;;;8.47;3.23;;;11.30;99.90;;;;;;4987218;28;20444;-76
2022/09/19 10:16:36;;;;;;;7.50;2.60;;;11.40;99.90;;;;;;4987753;28;20459;-76
2022/09/19 10:19:12;;;;;;;5.73;3.27;;;11.30;99.90;;;;;;4987525;28;21249;-76
2022/09/19 10:21:38;;;;;;;9.73;3.90;;;11.40;99.90;;;;;;4987164;28;20487;-76
2022/09/19 10:24:47;;;;;;;11.50;2.87;;;11.40;99.90;;;;;;4987020;28;20478;-76
2022/09/19 10:27:23;;;;;;;10.07;3.50;;;11.40;99.90;;;;;;4987648;28;20921;-77
2022/09/19 10:29:57;;;;;;;8.37;2.90;;;11.40;99.90;;;;;;4987592;28;20550;-76
2022/09/19 10:32:28;;;;;;;5.63;3.00;;;11.40;99.90;;;;;;4987404;28;20506;-76
2022/09/19 10:34:54;;;;;;;6.97;2.80;;;11.40;99.90;;;;;;4986941;28;20451;-76
2022/09/19 10:37:26;;;;;;;8.13;3.47;;;11.50;99.90;;;;;;4987013;28;20470;-76
2022/09/19 10:39:58;;;;;;;5.93;2.67;;;11.50;99.90;;;;;;4987790;28;20447;-76
2022/09/19 10:42:34;;;;;;;8.00;2.80;;;11.50;99.90;;;;;;4987624;28;20503;-76
2022/09/19 10:45:07;;;;;;;9.93;2.77;;;11.50;99.90;;;;;;4986478;28;20468;-76
2022/09/19 10:47:37;;;;;;;12.00;2.87;;;11.60;99.90;;;;;;4987591;28;20432;-76
2022/09/19 10:50:06;;;;;;;8.33;2.80;;;11.70;99.90;;;;;;4987011;28;20944;-76
2022/09/19 10:52:33;;;;;;;8.27;2.50;;;11.80;99.90;;;;;;4987307;28;20983;-76
2022/09/19 10:55:02;;;;;;;6.80;2.60;;;12.00;99.90;;;;;;4986278;28;20467;-77
2022/09/19 10:57:44;;;;;;;13.27;3.13;;;12.10;99.90;;;;;;4987163;28;20456;-76
2022/09/19 11:00:22;;;;;;;7.93;2.40;;;12.10;99.90;;;;;;4987140;28;20464;-77
2022/09/19 11:02:59;;;;;;;5.70;2.17;;;12.20;99.90;;;;;;4987107;28;20472;-77
2022/09/19 11:05:29;;;;;;;5.07;1.90;;;12.30;99.90;;;;;;4986449;28;20477;-77
2022/09/19 11:07:56;;;;;;;5.93;2.00;;;12.40;99.90;;;;;;4985594;28;20474;-79
2022/09/19 11:10:37;;;;;;;3.23;1.90;;;12.40;99.90;;;;;;4987471;28;20460;-77
2022/09/19 11:13:13;;;;;;;6.83;2.37;;;12.50;99.90;;;;;;4986765;28;20471;-77
2022/09/19 11:15:59;;;;;;;4.63;2.23;;;12.60;99.90;;;;;;4986286;28;20863;-77
2022/09/19 11:18:32;;;;;;;4.70;1.70;;;12.70;99.90;;;;;;4986682;28;20463;-76
2022/09/19 11:21:08;;;;;;;3.27;2.10;;;12.80;99.90;;;;;;4986667;28;20479;-77
2022/09/19 11:24:01;;;;;;;3.77;1.90;;;12.90;99.90;;;;;;4986773;28;20490;-77
2022/09/19 11:26:47;;;;;;;8.77;2.50;;;12.90;99.90;;;;;;4986856;28;20456;-77
2022/09/19 11:29:39;;;;;;;4.87;2.00;;;13.00;99.90;;;;;;4986929;28;20463;-77
2022/09/19 11:32:14;;;;;;;4.90;1.97;;;13.10;99.90;;;;;;4986801;28;20476;-77
2022/09/19 11:34:51;;;;;;;4.03;1.80;;;13.10;99.90;;;;;;4993727;28;21002;-78
2022/09/19 11:37:32;;;;;;;8.53;2.23;;;13.20;99.90;;;;;;4987374;28;20443;-77
2022/09/19 11:40:10;;;;;;;5.90;2.13;;;13.30;99.90;;;;;;4987030;28;20475;-77
2022/09/19 11:42:47;;;;;;;2.23;1.90;;;13.40;99.90;;;;;;4987215;28;20491;-76
2022/09/19 11:45:17;;;;;;;5.90;2.00;;;13.40;99.90;;;;;;4986111;28;20452;-77
2022/09/19 11:48:01;;;;;;;3.70;2.20;;;13.40;99.90;;;;;;4990594;28;20448;-79
2022/09/19 11:51:00;;;;;;;8.30;2.20;;;13.30;99.90;;;;;;4989179;28;20974;-77
2022/09/19 11:53:38;;;;;;;5.70;2.33;;;13.40;99.90;;;;;;4977313;28;20470;-77
2022/09/19 11:56:18;;;;;;;5.97;2.27;;;13.40;99.90;;;;;;4986130;28;20569;-77
2022/09/19 11:58:52;;;;;;;5.80;2.20;;;13.50;99.90;;;;;;4985905;28;20510;-77
2022/09/19 12:01:35;;;;;;;11.97;2.53;;;13.60;99.90;;;;;;4986246;28;20483;-76
2022/09/19 12:04:18;;;;;;;11.77;2.70;;;13.70;99.90;;;;;;4984988;28;20476;-77
2022/09/19 12:07:04;;;;;;;10.57;3.10;;;13.80;99.90;;;;;;4986051;28;20446;-78
2022/09/19 12:09:35;;;;;;;6.33;1.83;;;13.80;99.90;;;;;;4985210;28;20451;-77
2022/09/19 12:12:10;;;;;;;4.20;2.20;;;13.80;99.90;;;;;;4985444;28;20851;-76
2022/09/19 12:14:42;;;;;;;6.37;2.20;;;13.80;99.90;;;;;;4984616;28;20535;-76
2022/09/19 12:17:16;;;;;;;5.30;1.80;;;13.80;99.90;;;;;;4985199;28;20451;-76
2022/09/19 12:19:48;;;;;;;5.20;2.00;;;13.80;99.90;;;;;;4986539;28;20498;-76
2022/09/19 12:22:19;;;;;;;6.30;2.10;;;13.90;99.90;;;;;;4989753;28;20479;-76
2022/09/19 12:24:52;;;;;;;6.57;2.07;;;13.90;99.90;;;;;;4988613;28;20451;-76
2022/09/19 12:27:30;;;;;;;4.87;1.83;;;13.90;99.90;;;;;;4989469;28;21015;-76
2022/09/19 12:30:05;;;;;;;6.90;2.30;;;13.90;99.90;;;;;;4988844;28;20880;-76
2022/09/19 12:32:42;;;;;;;5.97;2.03;;;13.90;99.90;;;;;;4989003;28;20510;-75
2022/09/19 12:35:18;;;;;;;7.07;2.20;;;14.00;99.90;;;;;;4988703;28;20443;-76
2022/09/19 12:37:54;;;;;;;3.80;1.73;;;14.10;99.90;;;;;;4989005;28;20463;-75
2022/09/19 12:40:28;;;;;;;5.10;1.87;;;14.20;99.90;;;;;;4988831;28;20454;-76
2022/09/19 12:43:09;;;;;;;5.83;2.07;;;14.50;99.90;;;;;;4988955;28;20501;-76
2022/09/19 12:45:40;;;;;;;3.90;2.33;;;14.70;99.90;;;;;;4988409;28;20447;-76
2022/09/19 12:48:15;;;;;;;3.70;1.90;;;14.90;99.90;;;;;;4989012;28;20444;-77
2022/09/19 12:50:44;;;;;;;4.27;1.73;;;14.90;99.90;;;;;;4988716;28;20868;-76
2022/09/19 12:53:22;;;;;;;6.63;2.10;;;15.20;99.90;;;;;;4989857;28;20451;-76
2022/09/19 12:55:59;;;;;;;7.10;2.33;;;15.10;99.90;;;;;;4988907;28;20538;-76
2022/09/19 12:58:28;;;;;;;3.57;1.97;;;15.10;99.90;;;;;;4989208;28;20440;-76
2022/09/19 13:01:14;;;;;;;4.87;2.60;;;15.10;99.90;;;;;;4989146;28;20533;-76
2022/09/19 13:03:50;;;;;;;4.30;1.90;;;15.10;99.90;;;;;;4989566;28;20495;-76
2022/09/19 13:06:21;;;;;;;4.50;2.20;;;15.10;99.90;;;;;;4988885;28;20443;-76
2022/09/19 13:08:53;;;;;;;7.23;2.00;;;15.10;99.90;;;;;;4989557;28;20522;-76
2022/09/19 13:11:25;;;;;;;2.80;1.70;;;15.10;99.90;;;;;;4988988;28;20480;-76
2022/09/19 13:13:56;;;;;;;3.17;1.50;;;15.10;99.90;;;;;;4988763;28;20470;-75
2022/09/19 13:16:30;;;;;;;11.33;2.20;;;15.10;99.90;;;;;;4989273;28;20543;-76
2022/09/19 13:24:54;;;;;;;9.03;2.40;;;15.10;99.90;;;;;;4988286;28;20466;-76
2022/09/19 13:27:21;;;;;;;6.50;2.00;;;15.10;99.90;;;;;;4987317;28;20466;-76
2022/09/19 13:29:51;;;;;;;5.40;1.80;;;15.30;99.90;;;;;;4988677;28;20474;-76
2022/09/19 13:32:52;;;;;;;6.00;1.93;;;15.50;99.90;;;;;;4987705;28;20910;-76
2022/09/19 13:35:22;;;;;;;3.73;1.43;;;15.70;99.90;;;;;;4988448;28;20467;-76
2022/09/19 13:38:00;;;;;;;3.47;1.60;;;15.80;99.90;;;;;;4987170;28;20948;-76
2022/09/19 13:40:56;;;;;;;4.23;1.70;;;15.90;99.90;;;;;;4988359;28;20455;-76
2022/09/19 13:44:00;;;;;;;3.33;1.80;;;15.80;99.90;;;;;;4975982;28;21023;-76
2022/09/19 13:46:32;;;;;;;4.67;1.90;;;15.80;99.90;;;;;;4988402;28;20459;-76
2022/09/19 13:49:07;;;;;;;3.30;1.40;;;15.90;99.90;;;;;;4989004;28;20571;-76
2022/09/19 13:51:41;;;;;;;4.57;1.50;;;15.90;99.90;;;;;;4988613;28;20478;-76
2022/09/19 13:54:44;;;;;;;3.40;1.60;;;15.90;99.90;;;;;;4987765;28;20954;-76
2022/09/19 13:57:17;;;;;;;4.90;1.50;;;15.80;99.90;;;;;;4988429;28;20474;-76
2022/09/19 13:59:50;;;;;;;3.63;1.47;;;15.60;99.90;;;;;;4988064;28;21033;-76
2022/09/19 14:02:23;;;;;;;8.03;1.80;;;15.50;99.90;;;;;;4988190;28;21022;-76
2022/09/19 14:04:55;;;;;;;5.10;2.07;;;15.40;99.90;;;;;;4987521;28;20487;-76
2022/09/19 14:07:32;;;;;;;6.03;2.00;;;15.30;99.90;;;;;;4988389;28;20851;-76
2022/09/19 14:10:01;;;;;;;3.80;1.57;;;14.90;99.90;;;;;;4988167;28;20450;-76
2022/09/19 14:13:27;;;;;;;4.80;2.13;;;14.70;99.90;;;;;;4988240;28;20475;-76
2022/09/19 14:16:28;;;;;;;7.60;2.17;;;14.70;99.90;;;;;;4987204;28;20473;-76
2022/09/19 14:18:57;;;;;;;7.40;1.63;;;14.80;99.90;;;;;;5015320;28;20920;-76
2022/09/19 14:21:58;;;;;;;3.80;1.57;;;14.80;99.90;;;;;;5024278;28;20492;-76
2022/09/19 14:24:50;;;;;;;4.57;2.10;;;14.70;99.90;;;;;;5022216;28;21377;-75
2022/09/19 14:27:52;;;;;;;4.90;1.90;;;14.70;99.90;;;;;;5024444;28;20890;-76
2022/09/19 14:30:37;;;;;;;5.40;2.20;;;14.50;99.90;;;;;;5024246;28;20475;-76
2022/09/19 14:33:34;;;;;;;4.43;1.70;;;14.50;99.90;;;;;;5027623;28;20760;-76
2022/09/19 14:36:10;;;;;;;4.70;2.00;;;14.50;99.90;;;;;;4993289;28;20544;-76
2022/09/19 14:39:08;;;;;;;4.30;1.90;;;14.70;99.90;;;;;;5025475;28;20462;-75
2022/09/19 14:41:41;;;;;;;4.73;2.00;;;14.80;99.90;;;;;;4999914;28;20482;-76
2022/09/19 14:44:41;;;;;;;6.00;1.67;;;14.90;99.90;;;;;;5023199;28;20497;-76
2022/09/19 14:47:15;;;;;;;4.47;1.80;;;15.20;99.90;;;;;;5024346;28;20488;-76
2022/09/19 14:49:52;;;;;;;4.53;1.70;;;15.40;99.90;;;;;;5022819;28;20443;-76
2022/09/19 14:52:23;;;;;;;5.13;1.53;;;15.50;99.90;;;;;;5022389;28;20488;-76
2022/09/19 14:54:55;;;;;;;5.43;1.90;;;15.80;99.90;;;;;;5021644;28;20442;-76
2022/09/19 14:57:24;;;;;;;3.87;1.70;;;16.00;99.90;;;;;;5026171;28;20458;-76
2022/09/19 14:59:52;;;;;;;4.20;1.87;;;16.20;99.90;;;;;;5026532;28;20454;-75
2022/09/19 15:02:23;;;;;;;4.47;1.90;;;16.50;99.90;;;;;;5025662;28;20597;-75
2022/09/19 15:04:57;;;;;;;4.00;1.20;;;16.70;99.90;;;;;;5025677;28;20814;-75
2022/09/19 15:07:29;;;;;;;2.80;1.27;;;16.80;99.90;;;;;;5026602;28;20532;-76
2022/09/19 15:09:56;;;;;;;3.57;1.70;;;17.00;99.90;;;;;;5026100;28;20914;-76
2022/09/19 15:12:25;;;;;;;3.77;1.30;;;17.10;99.90;;;;;;5026060;28;20490;-75
2022/09/19 15:14:55;;;;;;;2.80;1.60;;;17.10;99.90;;;;;;5025604;28;20465;-75
2022/09/19 15:17:26;;;;;;;4.80;1.70;;;17.00;99.90;;;;;;5026522;28;20442;-75
2022/09/19 15:19:58;;;;;;;3.00;1.27;;;16.70;99.90;;;;;;5026493;28;20454;-75
2022/09/19 15:22:31;;;;;;;1.67;1.00;;;16.30;99.90;;;;;;5017398;28;20483;-75
2022/09/19 15:25:00;;;;;;;1.97;1.10;;;16.00;99.90;;;;;;4995171;28;20486;-74
2022/09/19 15:27:30;;;;;;;1.00;0.90;;;15.80;99.90;;;;;;4997863;28;20461;-75
2022/09/19 15:30:07;;;;;;;3.40;0.83;;;15.90;99.90;;;;;;4995970;28;20452;-75
2022/09/19 15:32:34;;;;;;;2.90;1.00;;;15.80;99.90;;;;;;4989308;28;20478;-75
2022/09/19 15:35:07;;;;;;;3.90;1.10;;;15.70;99.90;;;;;;4986060;28;20456;-74
2022/09/19 15:37:38;;;;;;;1.30;0.83;;;15.70;99.90;;;;;;4984423;28;20466;-75
2022/09/19 15:40:08;;;;;;;1.47;1.27;;;15.70;99.90;;;;;;4986584;28;20954;-75
2022/09/19 15:42:39;;;;;;;3.13;2.10;;;15.60;99.90;;;;;;4986039;28;20475;-75
2022/09/19 15:45:41;;;;;;;2.33;1.23;;;15.60;99.90;;;;;;4985800;28;20495;-75
2022/09/19 15:48:13;;;;;;;5.23;1.00;;;15.40;99.90;;;;;;4986297;28;20502;-75
2022/09/19 15:50:44;;;;;;;3.10;2.17;;;15.20;99.90;;;;;;4986362;28;20486;-75
2022/09/19 15:53:19;;;;;;;1.70;1.20;;;15.10;99.90;;;;;;4986228;28;20470;-76
2022/09/19 15:56:00;;;;;;;2.20;1.17;;;15.10;99.90;;;;;;4984844;28;20498;-75
2022/09/19 15:58:33;;;;;;;1.90;1.20;;;15.40;99.90;;;;;;4985757;28;20464;-75
2022/09/19 16:01:03;;;;;;;1.30;0.90;;;15.70;99.90;;;;;;4986153;28;20543;-75
2022/09/19 16:03:30;;;;;;;3.60;1.40;;;16.10;99.90;;;;;;4986407;28;20525;-75
2022/09/19 16:09:07;;;;;;;1.70;1.07;;;16.60;99.90;;;;;;4984740;28;20566;-75
2022/09/19 16:11:38;;;;;;;2.80;1.10;;;16.40;99.90;;;;;;4985214;28;20483;-77
2022/09/19 16:14:15;;;;;;;4.53;2.43;;;16.10;99.90;;;;;;4984452;28;21137;-75
2022/09/19 16:16:42;;;;;;;3.37;1.40;;;15.90;99.90;;;;;;4985307;28;20460;-75
2022/09/19 16:19:21;;;;;;;2.10;1.23;;;15.70;99.90;;;;;;4985103;28;20466;-76
2022/09/19 16:21:54;;;;;;;4.67;1.43;;;15.60;99.90;;;;;;4984471;28;21310;-75
2022/09/19 16:24:22;;;;;;;1.77;1.20;;;15.50;99.90;;;;;;4984074;28;20491;-75
2022/09/19 16:26:53;;;;;;;3.03;1.73;;;15.30;99.90;;;;;;4984513;28;20960;-76
2022/09/19 16:29:21;;;;;;;3.40;1.40;;;15.20;99.90;;;;;;4984895;28;20555;-75
2022/09/19 16:31:48;;;;;;;3.90;1.30;;;15.10;99.90;;;;;;4984428;28;20472;-75
2022/09/19 16:34:24;;;;;;;2.80;1.33;;;14.90;99.90;;;;;;4984275;28;21229;-75
2022/09/19 16:37:04;;;;;;;3.00;2.00;;;14.60;99.90;;;;;;4984892;28;20542;-75
2022/09/19 16:39:46;;;;;;;4.00;1.67;;;14.50;99.90;;;;;;4984521;28;20468;-75
2022/09/19 16:42:23;;;;;;;3.90;1.50;;;14.30;99.90;;;;;;4984630;28;21295;-74
2022/09/19 16:45:00;;;;;;;3.00;1.40;;;14.20;99.90;;;;;;4982625;28;20609;-75
2022/09/19 16:47:27;;;;;;;3.67;1.57;;;14.10;99.90;;;;;;4985932;28;20483;-75
2022/09/19 16:49:56;;;;;;;3.93;1.70;;;14.00;99.90;;;;;;4985485;28;20463;-75
2022/09/19 16:52:27;;;;;;;2.20;1.47;;;14.10;99.90;;;;;;4985101;28;20510;-75
2022/09/19 16:54:57;;;;;;;2.63;1.77;;;14.10;99.90;;;;;;4984852;28;20466;-75
2022/09/19 16:57:24;;;;;;;4.20;2.03;;;14.10;99.90;;;;;;4984525;28;20466;-75
2022/09/19 16:59:53;;;;;;;6.70;2.50;;;14.10;99.90;;;;;;4985356;28;20440;-77
2022/09/19 17:02:24;;;;;;;6.13;3.23;;;14.00;99.90;;;;;;4984913;28;20491;-75
2022/09/19 17:04:51;;;;;;;5.73;3.07;;;14.10;99.90;;;;;;4984556;28;20971;-75
2022/09/19 17:07:19;;;;;;;7.90;2.63;;;14.20;99.90;;;;;;4988740;28;20459;-75
2022/09/19 17:09:48;;;;;;;5.13;2.10;;;14.30;99.90;;;;;;4989277;28;20559;-77
2022/09/19 17:12:16;;;;;;;4.30;1.87;;;14.30;99.90;;;;;;4989496;28;20483;-76
2022/09/19 17:14:43;;;;;;;3.30;2.20;;;14.20;99.90;;;;;;4988741;28;20564;-76
2022/09/19 17:17:11;;;;;;;2.27;1.60;;;14.20;99.90;;;;;;4988687;28;20921;-76
2022/09/19 17:19:38;;;;;;;2.47;1.77;;;14.20;99.90;;;;;;4988867;28;20471;-76
2022/09/19 17:22:05;;;;;;;2.40;2.00;;;14.20;99.90;;;;;;4988973;28;21022;-76
2022/09/19 17:24:32;;;;;;;2.70;1.93;;;14.20;99.90;;;;;;4988514;28;20487;-76
2022/09/19 17:27:04;;;;;;;4.20;1.77;;;14.10;99.90;;;;;;4988820;28;20471;-76
2022/09/19 17:29:31;;;;;;;4.53;2.63;;;14.10;99.90;;;;;;4988444;28;20487;-76
2022/09/19 17:31:57;;;;;;;6.43;3.17;;;14.10;99.90;;;;;;4988447;28;20483;-76
2022/09/19 17:34:24;;;;;;;4.20;2.77;;;14.10;99.90;;;;;;4987789;28;21302;-76
2022/09/19 17:36:51;;;;;;;2.90;2.07;;;14.20;99.90;;;;;;4988010;28;20458;-77